Time;durP1;ratioP1;P1;durP2;ratioP2;P2;SDS_P1;SDS_P2;PMS_P1;PMS_P2;Temp;Humidity;BMP_temperature;BMP_pressure;BME280_temperature;BME280_humidity;BME280_pressure;Samples;Min_cycle;Max_cycle;Signal;HPM_P1;HPM_P2
2024/02/02 00:04:54;;;;;;;17.90;6.45;;;;;;;;;;10153035;29;20689;-75
2024/02/02 00:09:59;;;;;;;24.05;8.80;;;;;;;;;;10151457;29;20060;-75
2024/02/02 00:15:02;;;;;;;23.45;9.35;;;;;;;;;;10157266;29;20551;-75
2024/02/02 00:20:08;;;;;;;24.50;8.63;;;;;;;;;;10150780;29;20063;-75
2024/02/02 00:25:13;;;;;;;16.30;7.13;;;;;;;;;;10153375;29;20048;-75
2024/02/02 00:30:17;;;;;;;14.43;5.93;;;;;;;;;;10158253;29;20064;-75
2024/02/02 00:35:21;;;;;;;13.38;4.63;;;;;;;;;;10159060;29;20126;-75
2024/02/02 00:40:26;;;;;;;13.60;4.03;;;;;;;;;;10151833;29;20685;-75
2024/02/02 00:45:29;;;;;;;6.97;3.30;;;;;;;;;;10149554;29;20524;-75
2024/02/02 00:50:33;;;;;;;6.43;3.17;;;;;;;;;;10152149;29;20055;-75
2024/02/02 00:55:37;;;;;;;5.18;2.78;;;;;;;;;;10156154;29;20575;-75
2024/02/02 01:00:41;;;;;;;6.50;2.65;;;;;;;;;;10160976;29;20052;-75
2024/02/02 01:05:44;;;;;;;6.00;2.50;;;;;;;;;;10165115;29;20059;-75
2024/02/02 01:10:49;;;;;;;6.32;2.40;;;;;;;;;;10167256;29;20075;-75
2024/02/02 01:15:52;;;;;;;9.60;3.05;;;;;;;;;;10168509;29;20275;-75
2024/02/02 01:20:56;;;;;;;4.18;2.63;;;;;;;;;;10183220;29;20052;-75
2024/02/02 01:26:01;;;;;;;5.78;2.30;;;;;;;;;;10167587;29;20066;-75
2024/02/02 01:31:04;;;;;;;3.10;2.20;;;;;;;;;;10169791;29;20282;-75
2024/02/02 01:36:08;;;;;;;3.75;1.98;;;;;;;;;;10170246;29;20051;-75
2024/02/02 01:41:13;;;;;;;4.07;2.05;;;;;;;;;;10168155;29;20139;-75
2024/02/02 01:46:16;;;;;;;4.03;1.90;;;;;;;;;;10164977;29;20119;-75
2024/02/02 01:51:20;;;;;;;3.45;1.88;;;;;;;;;;10168802;29;20075;-75
2024/02/02 01:56:25;;;;;;;6.85;1.60;;;;;;;;;;10157610;29;20409;-75
2024/02/02 02:01:28;;;;;;;2.15;1.48;;;;;;;;;;10162297;29;20490;-76
2024/02/02 02:06:32;;;;;;;4.78;2.30;;;;;;;;;;10154554;29;20280;-76
2024/02/02 02:11:37;;;;;;;4.25;1.70;;;;;;;;;;10155021;29;20132;-75
2024/02/02 02:16:42;;;;;;;4.35;1.67;;;;;;;;;;10157186;29;20114;-75
2024/02/02 02:21:47;;;;;;;5.53;1.85;;;;;;;;;;10156158;29;20052;-75
2024/02/02 02:26:50;;;;;;;2.97;1.95;;;;;;;;;;10159665;29;20049;-75
2024/02/02 02:31:54;;;;;;;3.30;1.75;;;;;;;;;;10154366;29;20126;-76
2024/02/02 02:36:59;;;;;;;3.47;1.88;;;;;;;;;;10159975;29;20155;-75
2024/02/02 02:42:03;;;;;;;3.30;1.83;;;;;;;;;;10161561;29;20063;-75
2024/02/02 02:47:06;;;;;;;9.18;2.42;;;;;;;;;;10160055;29;20527;-76
2024/02/02 02:52:11;;;;;;;4.07;1.50;;;;;;;;;;10171977;29;20052;-75
2024/02/02 02:57:15;;;;;;;4.53;1.83;;;;;;;;;;10156151;29;20566;-76
2024/02/02 03:02:18;;;;;;;6.57;1.90;;;;;;;;;;10156318;29;20055;-75
2024/02/02 03:07:23;;;;;;;2.88;1.48;;;;;;;;;;10157838;29;20587;-76
2024/02/02 03:12:26;;;;;;;3.83;1.60;;;;;;;;;;10148853;29;20052;-75
2024/02/02 03:17:30;;;;;;;3.10;1.40;;;;;;;;;;10149033;29;20049;-76
2024/02/02 03:22:35;;;;;;;3.05;1.25;;;;;;;;;;10153063;29;20123;-75
2024/02/02 03:27:38;;;;;;;2.55;1.50;;;;;;;;;;10152363;29;20560;-75
2024/02/02 03:32:42;;;;;;;3.88;1.90;;;;;;;;;;10151376;29;20040;-75
2024/02/02 03:37:47;;;;;;;4.60;2.30;;;;;;;;;;10158510;29;20519;-76
2024/02/02 03:42:51;;;;;;;3.08;1.60;;;;;;;;;;10158562;29;20055;-75
2024/02/02 03:47:54;;;;;;;4.18;1.88;;;;;;;;;;10159040;29;20055;-76
2024/02/02 03:53:00;;;;;;;4.00;2.05;;;;;;;;;;10169461;29;20457;-75
2024/02/02 03:58:04;;;;;;;3.63;1.80;;;;;;;;;;10154974;29;20099;-76
2024/02/02 04:03:08;;;;;;;4.28;1.95;;;;;;;;;;10155870;29;20158;-75
2024/02/02 04:08:12;;;;;;;2.75;1.70;;;;;;;;;;10153783;29;20052;-76
2024/02/02 04:13:16;;;;;;;2.42;1.58;;;;;;;;;;10145510;29;20571;-76
2024/02/02 04:18:19;;;;;;;2.45;1.48;;;;;;;;;;10150629;29;20492;-77
2024/02/02 04:23:26;;;;;;;3.88;1.65;;;;;;;;;;10151137;29;20183;-76
2024/02/02 04:28:29;;;;;;;;;;;;;;;;;;10153184;29;20064;-76
2024/02/02 04:33:32;;;;;;;2.80;1.40;;;;;;;;;;10156311;29;20501;-76
2024/02/02 04:38:37;;;;;;;2.45;1.50;;;;;;;;;;10154059;29;20135;-76
2024/02/02 04:43:40;;;;;;;2.10;1.00;;;;;;;;;;10154868;29;20052;-76
2024/02/02 04:48:44;;;;;;;2.55;1.23;;;;;;;;;;10157919;29;20705;-76
2024/02/02 04:53:49;;;;;;;2.25;1.30;;;;;;;;;;10155976;29;20063;-75
2024/02/02 04:58:53;;;;;;;2.90;1.60;;;;;;;;;;10153425;29;20110;-76
2024/02/02 05:03:56;;;;;;;3.25;1.65;;;;;;;;;;10157129;29;20055;-76
2024/02/02 05:09:13;;;;;;;3.58;1.70;;;;;;;;;;10155766;29;20797;-75
2024/02/02 05:14:16;;;;;;;3.25;1.40;;;;;;;;;;10157229;29;20128;-76
2024/02/02 05:19:20;;;;;;;2.50;1.30;;;;;;;;;;10136807;29;20151;-76
2024/02/02 05:24:24;;;;;;;3.47;1.60;;;;;;;;;;10121026;29;20056;-76
2024/02/02 05:29:28;;;;;;;3.05;1.65;;;;;;;;;;10115882;29;20469;-76
2024/02/02 05:34:31;;;;;;;2.78;1.30;;;;;;;;;;10113628;29;20477;-76
2024/02/02 05:39:36;;;;;;;1.85;1.13;;;;;;;;;;10114444;29;20080;-76
2024/02/02 05:44:40;;;;;;;4.35;1.42;;;;;;;;;;10124118;29;20088;-77
2024/02/02 05:49:43;;;;;;;5.43;1.73;;;;;;;;;;10120731;29;20143;-76
2024/02/02 05:54:48;;;;;;;5.47;1.77;;;;;;;;;;10127872;29;20137;-76
2024/02/02 05:59:51;;;;;;;2.63;1.25;;;;;;;;;;10131331;29;20076;-76
2024/02/02 06:04:55;;;;;;;2.58;1.35;;;;;;;;;;10125324;29;20060;-76
2024/02/02 06:10:00;;;;;;;5.20;1.73;;;;;;;;;;10122165;29;20049;-76
2024/02/02 06:15:04;;;;;;;2.83;1.55;;;;;;;;;;10127634;29;20072;-76
2024/02/02 06:20:08;;;;;;;4.68;1.80;;;;;;;;;;10125830;29;20052;-77
2024/02/02 06:25:13;;;;;;;6.28;1.95;;;;;;;;;;10121934;29;20060;-74
2024/02/02 06:30:17;;;;;;;2.58;1.05;;;;;;;;;;10119314;29;20052;-76
2024/02/02 06:35:20;;;;;;;8.70;3.03;;;;;;;;;;10118638;29;20044;-76
2024/02/02 06:40:25;;;;;;;5.50;2.70;;;;;;;;;;10117389;29;20151;-77
2024/02/02 06:45:28;;;;;;;4.90;2.80;;;;;;;;;;10119319;29;20052;-76
2024/02/02 06:50:32;;;;;;;6.55;2.95;;;;;;;;;;10118484;29;20446;-76
2024/02/02 06:55:37;;;;;;;5.38;2.42;;;;;;;;;;10117294;29;20048;-77
2024/02/02 07:00:40;;;;;;;14.65;7.32;;;;;;;;;;10118176;29;20048;-76
2024/02/02 07:05:44;;;;;;;12.45;5.55;;;;;;;;;;10116930;29;20053;-76
2024/02/02 07:11:10;;;;;;;33.53;15.88;;;;;;;;;;10120281;29;20044;-76
2024/02/02 07:16:17;;;;;;;23.25;11.82;;;;;;;;;;10126695;29;20157;-76
2024/02/02 07:21:23;;;;;;;17.23;7.40;;;;;;;;;;10117354;29;20073;-77
2024/02/02 07:26:30;;;;;;;10.48;5.13;;;;;;;;;;10111373;29;20108;-76
2024/02/02 07:31:39;;;;;;;21.83;11.88;;;;;;;;;;10117137;29;20053;-76
2024/02/02 07:36:42;;;;;;;14.93;7.90;;;;;;;;;;10113335;29;20670;-76
2024/02/02 07:41:50;;;;;;;8.88;5.00;;;;;;;;;;10113986;29;20048;-76
2024/02/02 07:47:03;;;;;;;11.18;3.65;;;;;;;;;;10109865;29;20379;-77
2024/02/02 07:52:07;;;;;;;7.43;3.00;;;;;;;;;;10108024;29;20128;-77
2024/02/02 07:57:12;;;;;;;5.45;2.38;;;;;;;;;;10112748;29;20508;-77
2024/02/02 08:02:15;;;;;;;7.85;3.13;;;;;;;;;;10112779;29;20067;-77
2024/02/02 08:07:18;;;;;;;5.35;3.05;;;;;;;;;;10108177;29;20049;-77
2024/02/02 08:19:26;;;;;;;6.15;3.53;;;;;;;;;;10108745;29;20040;-77
2024/02/02 08:24:29;;;;;;;5.82;2.72;;;;;;;;;;10105785;29;20547;-75
2024/02/02 08:29:32;;;;;;;4.13;2.38;;;;;;;;;;10110888;29;20049;-77
2024/02/02 08:34:37;;;;;;;6.50;2.08;;;;;;;;;;10109095;29;20059;-77
2024/02/02 08:39:41;;;;;;;5.45;1.98;;;;;;;;;;10108060;29;20124;-75
2024/02/02 08:44:45;;;;;;;6.35;2.47;;;;;;;;;;10114365;29;20075;-77
2024/02/02 08:49:55;;;;;;;5.82;2.58;;;;;;;;;;10105840;29;20495;-77
2024/02/02 08:55:03;;;;;;;8.10;2.65;;;;;;;;;;10105877;29;20440;-75
2024/02/02 09:00:16;;;;;;;7.27;3.07;;;;;;;;;;10106975;29;20057;-75
2024/02/02 09:05:22;;;;;;;6.88;3.05;;;;;;;;;;10106565;29;20504;-77
2024/02/02 09:11:14;;;;;;;6.82;2.33;;;;;;;;;;10102673;29;20069;-77
2024/02/02 09:16:19;;;;;;;13.80;4.03;;;;;;;;;;10107663;29;20064;-75
2024/02/02 09:21:32;;;;;;;12.20;3.75;;;;;;;;;;10114224;29;20515;-76
2024/02/02 09:26:39;;;;;;;13.82;4.10;;;;;;;;;;10115888;29;20509;-76
2024/02/02 09:31:42;;;;;;;17.63;4.90;;;;;;;;;;10120955;29;20049;-75
2024/02/02 09:36:48;;;;;;;11.05;3.97;;;;;;;;;;10119830;29;20456;-74
2024/02/02 09:42:07;;;;;;;10.47;3.60;;;;;;;;;;10118063;29;20048;-74
2024/02/02 09:47:38;;;;;;;12.20;4.30;;;;;;;;;;10124415;29;20488;-76
2024/02/02 09:52:59;;;;;;;11.57;4.00;;;;;;;;;;10116814;29;20097;-75
2024/02/02 09:58:08;;;;;;;10.93;3.58;;;;;;;;;;10128079;29;20084;-74
2024/02/02 10:03:22;;;;;;;13.07;3.50;;;;;;;;;;10118232;29;20788;-74
2024/02/02 10:08:46;;;;;;;12.35;3.95;;;;;;;;;;10118539;29;20588;-75
2024/02/02 10:14:05;;;;;;;11.73;3.97;;;;;;;;;;10118770;29;20056;-74
2024/02/02 10:19:33;;;;;;;18.63;4.38;;;;;;;;;;10114083;29;20064;-74
2024/02/02 10:24:58;;;;;;;7.93;2.92;;;;;;;;;;10118676;29;20052;-74
2024/02/02 10:30:10;;;;;;;15.55;3.90;;;;;;;;;;10114472;29;20485;-75
2024/02/02 10:35:23;;;;;;;15.55;4.13;;;;;;;;;;10118705;29;20473;-74
2024/02/02 10:40:40;;;;;;;9.50;3.28;;;;;;;;;;10106836;29;20710;-74
2024/02/02 10:45:54;;;;;;;10.73;3.72;;;;;;;;;;10119108;29;20104;-74
2024/02/02 10:51:08;;;;;;;5.38;2.70;;;;;;;;;;10120482;29;20096;-74
2024/02/02 10:56:29;;;;;;;10.93;3.55;;;;;;;;;;10113110;29;20052;-74
2024/02/02 11:01:42;;;;;;;16.75;3.83;;;;;;;;;;10116059;29;20100;-77
2024/02/02 11:06:50;;;;;;;14.00;3.85;;;;;;;;;;10115089;29;20623;-74
2024/02/02 11:12:05;;;;;;;12.20;3.85;;;;;;;;;;10197084;23;20067;-75
2024/02/02 11:17:21;;;;;;;12.63;3.78;;;;;;;;;;10194210;28;20056;-75
2024/02/02 11:22:30;;;;;;;11.35;3.95;;;;;;;;;;10199207;29;20044;-75
2024/02/02 11:27:45;;;;;;;9.60;3.28;;;;;;;;;;10196024;29;20127;-75
2024/02/02 11:33:17;;;;;;;8.05;3.15;;;;;;;;;;10211279;28;20130;-75
2024/02/02 11:38:33;;;;;;;14.27;3.90;;;;;;;;;;10194772;28;20743;-75
2024/02/02 11:43:38;;;;;;;14.55;4.18;;;;;;;;;;10193794;28;20082;-75
2024/02/02 11:48:43;;;;;;;10.70;3.13;;;;;;;;;;10192569;29;20067;-75
2024/02/02 11:53:53;;;;;;;10.17;3.80;;;;;;;;;;10195818;29;20048;-75
2024/02/02 11:59:04;;;;;;;10.90;3.70;;;;;;;;;;10195122;29;20287;-75
2024/02/02 12:04:21;;;;;;;8.57;3.45;;;;;;;;;;10195621;29;20052;-75
2024/02/02 12:09:31;;;;;;;7.63;3.40;;;;;;;;;;10193897;29;20079;-75
2024/02/02 12:14:43;;;;;;;8.23;3.25;;;;;;;;;;10194451;29;20048;-75
2024/02/02 12:19:46;;;;;;;7.40;3.17;;;;;;;;;;10192501;29;20121;-75
2024/02/02 12:24:50;;;;;;;10.18;3.03;;;;;;;;;;10194562;29;20091;-75
2024/02/02 12:29:55;;;;;;;6.97;2.85;;;;;;;;;;10194410;29;20052;-75
2024/02/02 12:34:59;;;;;;;13.00;3.47;;;;;;;;;;10193702;29;20089;-75
2024/02/02 12:40:07;;;;;;;8.52;3.25;;;;;;;;;;10192350;28;20508;-75
2024/02/02 12:45:13;;;;;;;8.43;3.38;;;;;;;;;;10189847;28;20079;-75
2024/02/02 12:50:18;;;;;;;8.25;3.20;;;;;;;;;;10193218;29;20116;-74
2024/02/02 12:55:21;;;;;;;11.85;3.53;;;;;;;;;;10191707;29;20348;-75
2024/02/02 13:00:26;;;;;;;7.93;2.65;;;;;;;;;;10192919;29;20099;-75
2024/02/02 13:05:30;;;;;;;9.20;3.37;;;;;;;;;;10188831;29;20056;-75
2024/02/02 13:10:39;;;;;;;8.88;3.38;;;;;;;;;;10192299;29;20075;-75
2024/02/02 13:15:43;;;;;;;8.05;2.75;;;;;;;;;;10192956;29;20072;-75
2024/02/02 13:20:49;;;;;;;6.35;2.65;;;;;;;;;;10192806;29;20095;-75
2024/02/02 13:25:53;;;;;;;6.65;2.80;;;;;;;;;;10192692;29;20123;-75
2024/02/02 13:31:00;;;;;;;9.15;2.90;;;;;;;;;;10193893;29;20055;-75
2024/02/02 13:36:10;;;;;;;6.72;2.53;;;;;;;;;;10192386;29;20570;-75
2024/02/02 13:41:15;;;;;;;3.55;2.17;;;;;;;;;;10192986;28;20083;-75
2024/02/02 13:46:20;;;;;;;8.20;3.13;;;;;;;;;;10193675;29;20829;-75
2024/02/02 13:51:25;;;;;;;8.38;3.13;;;;;;;;;;10191693;29;20426;-75
2024/02/02 13:56:29;;;;;;;6.38;2.30;;;;;;;;;;10193721;29;20507;-75
2024/02/02 14:01:33;;;;;;;6.63;2.80;;;;;;;;;;10191589;29;20451;-75
2024/02/02 14:06:37;;;;;;;7.78;2.72;;;;;;;;;;10201985;29;20533;-74
2024/02/02 14:11:41;;;;;;;6.15;3.00;;;;;;;;;;10197907;29;20048;-74
2024/02/02 14:16:46;;;;;;;5.05;2.20;;;;;;;;;;10198654;29;20081;-74
2024/02/02 14:21:49;;;;;;;5.45;2.58;;;;;;;;;;10199562;29;20079;-74
2024/02/02 14:26:53;;;;;;;9.07;3.40;;;;;;;;;;10199142;29;20051;-74
2024/02/02 14:31:59;;;;;;;7.07;2.72;;;;;;;;;;10199097;29;20591;-74
2024/02/02 14:37:04;;;;;;;5.50;2.85;;;;;;;;;;10198124;29;20460;-74
2024/02/02 14:42:07;;;;;;;6.88;3.40;;;;;;;;;;10198582;28;20527;-74
2024/02/02 14:47:13;;;;;;;4.93;2.40;;;;;;;;;;10197924;29;20052;-74
2024/02/02 14:52:16;;;;;;;4.78;2.90;;;;;;;;;;10198278;29;20063;-74
2024/02/02 14:57:19;;;;;;;6.43;2.70;;;;;;;;;;10194188;29;20075;-74
2024/02/02 15:02:24;;;;;;;7.22;3.50;;;;;;;;;;10195226;29;20059;-74
2024/02/02 15:07:27;;;;;;;7.47;3.72;;;;;;;;;;10209648;28;20554;-74
2024/02/02 15:12:31;;;;;;;6.53;3.80;;;;;;;;;;10195299;29;20072;-74
2024/02/02 15:17:35;;;;;;;6.57;3.47;;;;;;;;;;10195731;29;20105;-74
2024/02/02 15:22:39;;;;;;;9.38;4.18;;;;;;;;;;10197919;29;20046;-74
2024/02/02 15:27:42;;;;;;;4.40;2.70;;;;;;;;;;10185980;29;20059;-74
2024/02/02 15:32:47;;;;;;;6.55;2.97;;;;;;;;;;10192705;29;20594;-74
2024/02/02 15:37:51;;;;;;;6.55;3.28;;;;;;;;;;10193609;29;20062;-74
2024/02/02 15:42:54;;;;;;;6.13;3.15;;;;;;;;;;10196673;29;20138;-74
2024/02/02 15:47:59;;;;;;;7.85;3.70;;;;;;;;;;10196032;28;20496;-74
2024/02/02 15:53:03;;;;;;;7.97;3.25;;;;;;;;;;10193143;29;20684;-74
2024/02/02 15:58:06;;;;;;;3.80;1.88;;;;;;;;;;10192050;29;20380;-74
2024/02/02 16:03:11;;;;;;;9.90;3.45;;;;;;;;;;10195468;28;20047;-74
2024/02/02 16:08:14;;;;;;;3.38;2.40;;;;;;;;;;10194910;29;20306;-74
2024/02/02 16:13:18;;;;;;;3.47;2.20;;;;;;;;;;10195187;29;20131;-75
2024/02/02 16:18:22;;;;;;;5.78;2.58;;;;;;;;;;10193823;29;20052;-75
2024/02/02 16:23:26;;;;;;;2.90;1.83;;;;;;;;;;10195162;28;20050;-73
2024/02/02 16:28:30;;;;;;;3.35;1.77;;;;;;;;;;10194029;28;20059;-75
2024/02/02 16:33:34;;;;;;;5.55;3.08;;;;;;;;;;10203389;28;20159;-75
2024/02/02 16:38:38;;;;;;;5.82;3.20;;;;;;;;;;10194333;28;20056;-74
2024/02/02 16:43:41;;;;;;;5.25;2.50;;;;;;;;;;10194927;28;20883;-74
2024/02/02 16:48:47;;;;;;;5.78;2.70;;;;;;;;;;10189454;28;20443;-74
2024/02/02 16:53:50;;;;;;;2.58;1.83;;;;;;;;;;10194703;28;20055;-74
2024/02/02 16:58:53;;;;;;;4.97;1.70;;;;;;;;;;10198416;28;20119;-74
2024/02/02 17:03:59;;;;;;;3.45;2.22;;;;;;;;;;10198656;29;20095;-74
2024/02/02 17:09:02;;;;;;;9.90;4.47;;;;;;;;;;10197926;29;20150;-74
2024/02/02 17:14:05;;;;;;;7.68;5.25;;;;;;;;;;10199054;29;20139;-74
2024/02/02 17:19:10;;;;;;;11.00;4.82;;;;;;;;;;10195383;28;20795;-74
2024/02/02 17:24:14;;;;;;;9.27;4.53;;;;;;;;;;10195593;29;20058;-74
2024/02/02 17:29:17;;;;;;;7.88;3.80;;;;;;;;;;10195616;28;20055;-74
2024/02/02 17:34:22;;;;;;;6.93;4.22;;;;;;;;;;10197275;29;20048;-74
2024/02/02 17:39:26;;;;;;;8.60;4.40;;;;;;;;;;10203060;28;20115;-74
2024/02/02 17:44:29;;;;;;;6.28;3.60;;;;;;;;;;10204960;28;20515;-74
2024/02/02 17:49:34;;;;;;;9.43;4.85;;;;;;;;;;10199844;29;20130;-74
2024/02/02 17:54:39;;;;;;;7.80;3.90;;;;;;;;;;10169125;29;20059;-74
2024/02/02 17:59:43;;;;;;;10.82;4.53;;;;;;;;;;10203494;29;20424;-74
2024/02/02 18:04:48;;;;;;;10.90;4.63;;;;;;;;;;10205041;29;20102;-74
2024/02/02 18:09:51;;;;;;;7.22;3.42;;;;;;;;;;10200802;29;20068;-74
2024/02/02 18:14:54;;;;;;;7.35;4.15;;;;;;;;;;10202532;28;20048;-74
2024/02/02 18:20:00;;;;;;;7.43;4.80;;;;;;;;;;10198924;28;20047;-74
2024/02/02 18:25:05;;;;;;;9.50;4.88;;;;;;;;;;10201139;28;20547;-74
2024/02/02 18:30:09;;;;;;;7.57;5.32;;;;;;;;;;10201137;29;20043;-74
2024/02/02 18:35:14;;;;;;;11.43;6.47;;;;;;;;;;10200061;28;20043;-74
2024/02/02 18:40:18;;;;;;;9.95;5.20;;;;;;;;;;10200518;29;20043;-74
2024/02/02 18:45:21;;;;;;;10.18;5.82;;;;;;;;;;10199501;28;20040;-74
2024/02/02 18:50:26;;;;;;;9.05;5.13;;;;;;;;;;10198338;28;20048;-74
2024/02/02 18:55:29;;;;;;;8.27;5.20;;;;;;;;;;10198892;28;20189;-74
2024/02/02 19:00:33;;;;;;;8.45;5.78;;;;;;;;;;10198489;29;20266;-75
2024/02/02 19:05:38;;;;;;;6.97;4.97;;;;;;;;;;10198899;29;20586;-74
2024/02/02 19:10:41;;;;;;;9.15;5.43;;;;;;;;;;10198625;28;20106;-74
2024/02/02 19:15:46;;;;;;;7.45;5.00;;;;;;;;;;10199883;29;20669;-75
2024/02/02 19:20:51;;;;;;;9.02;5.15;;;;;;;;;;10198880;28;20084;-74
2024/02/02 19:25:54;;;;;;;8.15;5.28;;;;;;;;;;10213822;28;20059;-74
2024/02/02 19:30:57;;;;;;;6.18;3.85;;;;;;;;;;10199113;29;20047;-74
2024/02/02 19:36:02;;;;;;;9.57;6.25;;;;;;;;;;10198074;29;20142;-74
2024/02/02 19:41:15;;;;;;;8.68;5.05;;;;;;;;;;10197889;28;20078;-74
2024/02/02 19:46:22;;;;;;;11.23;6.25;;;;;;;;;;10197854;29;20071;-74
2024/02/02 19:51:28;;;;;;;15.48;8.65;;;;;;;;;;10197904;29;20059;-74
2024/02/02 19:56:32;;;;;;;;;;;;;;;;;;10197787;29;20669;-75
2024/02/02 20:01:35;;;;;;;10.30;5.75;;;;;;;;;;10196537;29;20291;-75
2024/02/02 20:06:41;;;;;;;9.80;5.28;;;;;;;;;;10196436;29;20222;-74
2024/02/02 20:11:44;;;;;;;8.80;5.93;;;;;;;;;;10192994;29;20059;-74
2024/02/02 20:16:48;;;;;;;12.80;7.05;;;;;;;;;;10195936;29;20071;-74
2024/02/02 20:21:54;;;;;;;8.90;5.50;;;;;;;;;;10197632;29;20412;-74
2024/02/02 20:26:58;;;;;;;11.98;7.07;;;;;;;;;;10194655;29;20059;-74
2024/02/02 20:32:02;;;;;;;10.45;6.18;;;;;;;;;;10196377;29;20087;-74
2024/02/02 20:37:07;;;;;;;6.88;4.75;;;;;;;;;;10194873;28;20142;-74
2024/02/02 20:42:10;;;;;;;8.75;5.43;;;;;;;;;;10212303;28;20115;-75
2024/02/02 20:47:14;;;;;;;11.55;7.07;;;;;;;;;;10191864;29;20068;-74
2024/02/02 20:52:21;;;;;;;8.50;5.13;;;;;;;;;;10189622;28;20500;-74
2024/02/02 20:57:24;;;;;;;7.50;5.05;;;;;;;;;;10189384;29;20047;-75
2024/02/02 21:02:28;;;;;;;6.35;4.45;;;;;;;;;;10195721;29;20064;-75
2024/02/02 21:07:33;;;;;;;7.70;4.70;;;;;;;;;;10192246;28;20075;-74
2024/02/02 21:12:36;;;;;;;7.65;5.47;;;;;;;;;;10197714;29;20051;-74
2024/02/02 21:17:46;;;;;;;7.50;4.53;;;;;;;;;;10205058;28;20059;-74
2024/02/02 21:22:51;;;;;;;7.43;5.25;;;;;;;;;;10218538;28;20652;-74
2024/02/02 21:27:54;;;;;;;4.80;3.78;;;;;;;;;;10204095;29;20048;-74
2024/02/02 21:32:58;;;;;;;6.20;4.10;;;;;;;;;;10205158;29;20103;-74
2024/02/02 21:38:03;;;;;;;5.90;4.10;;;;;;;;;;10203395;29;20342;-75
2024/02/02 21:43:06;;;;;;;6.20;4.63;;;;;;;;;;10205593;28;20051;-74
2024/02/02 21:48:10;;;;;;;6.53;4.10;;;;;;;;;;10203264;29;20044;-75
2024/02/02 21:53:16;;;;;;;6.25;3.50;;;;;;;;;;10204545;29;20050;-75
2024/02/02 21:58:19;;;;;;;9.67;7.00;;;;;;;;;;10203279;29;20146;-75
2024/02/02 22:03:23;;;;;;;7.50;5.43;;;;;;;;;;10203091;28;20058;-75
2024/02/02 22:08:28;;;;;;;8.30;5.40;;;;;;;;;;10202552;29;20036;-75
2024/02/02 22:13:31;;;;;;;5.93;4.43;;;;;;;;;;10201566;28;20051;-75
2024/02/02 22:18:35;;;;;;;10.77;7.22;;;;;;;;;;10202704;28;20074;-75
2024/02/02 22:23:39;;;;;;;12.75;8.18;;;;;;;;;;10195422;29;20131;-75
2024/02/02 22:28:43;;;;;;;10.40;7.57;;;;;;;;;;10200349;29;20107;-74
2024/02/02 22:33:46;;;;;;;14.30;9.82;;;;;;;;;;10201476;29;20135;-75
2024/02/02 22:38:54;;;;;;;12.93;9.20;;;;;;;;;;10204361;28;20052;-75
2024/02/02 22:43:58;;;;;;;12.77;9.38;;;;;;;;;;10198889;28;20140;-75
2024/02/02 22:49:01;;;;;;;14.30;8.95;;;;;;;;;;10197324;28;20051;-75
2024/02/02 22:54:06;;;;;;;11.80;8.55;;;;;;;;;;10200333;29;20075;-74
2024/02/02 22:59:10;;;;;;;26.52;14.70;;;;;;;;;;10200856;29;20051;-75
2024/02/02 23:04:13;;;;;;;36.63;18.08;;;;;;;;;;10200029;29;20104;-75
2024/02/02 23:09:18;;;;;;;26.42;15.55;;;;;;;;;;10199020;28;20118;-75
2024/02/02 23:14:21;;;;;;;22.20;13.88;;;;;;;;;;10199916;29;20267;-74
2024/02/02 23:19:25;;;;;;;22.38;13.35;;;;;;;;;;10198356;29;20106;-75
2024/02/02 23:24:30;;;;;;;22.35;13.80;;;;;;;;;;10197782;29;20078;-74
2024/02/02 23:29:33;;;;;;;17.33;10.73;;;;;;;;;;10197628;29;20118;-74
2024/02/02 23:34:36;;;;;;;16.83;10.85;;;;;;;;;;10197938;29;20074;-75
2024/02/02 23:39:42;;;;;;;22.35;14.05;;;;;;;;;;10195066;28;20051;-74
2024/02/02 23:44:45;;;;;;;17.77;11.48;;;;;;;;;;10197933;29;20474;-74
2024/02/02 23:49:48;;;;;;;16.95;11.27;;;;;;;;;;10197103;28;20546;-75
2024/02/02 23:54:53;;;;;;;10.88;7.45;;;;;;;;;;10197634;28;20044;-75
2024/02/02 23:59:57;;;;;;;15.98;10.82;;;;;;;;;;10196166;29;20052;-74
